createdAt,value
2022-11-02T00:02:58.411Z,100524.03
2022-11-02T00:08:01.147Z,100528.41
2022-11-02T00:13:04.650Z,100523.84
2022-11-02T00:18:11.099Z,100529.84
2022-11-02T00:23:15.741Z,100522.31
2022-11-02T00:28:18.527Z,100530.13
2022-11-02T00:33:22.762Z,100536.25
2022-11-02T00:38:25.472Z,100534.06
2022-11-02T00:43:28.215Z,100539.19
2022-11-02T00:48:32.345Z,100552.38
2022-11-02T00:53:35.887Z,100550.25
2022-11-02T00:58:38.617Z,100543.56
2022-11-02T01:03:43.015Z,100540.34
2022-11-02T01:08:45.723Z,100533.66
2022-11-02T01:13:48.539Z,100528.34
2022-11-02T01:18:56.399Z,100541.25
2022-11-02T01:23:58.990Z,100538.75
2022-11-02T01:29:01.597Z,100541.69
2022-11-02T01:34:05.557Z,100534.78
2022-11-02T01:39:08.517Z,100525.16
2022-11-02T01:44:28.577Z,100521.06
2022-11-02T01:49:36.852Z,100525.94
2022-11-02T01:54:43.510Z,100526.22
2022-11-02T01:59:51.150Z,100519.34
2022-11-02T02:05:01.142Z,100520.41
2022-11-02T02:10:06.951Z,100516.09
2022-11-02T02:15:11.663Z,100513.59
2022-11-02T02:20:27.227Z,100511.22
2022-11-02T02:25:51.683Z,100506.25
2022-11-02T02:31:02.755Z,100493.75
2022-11-02T02:36:11.728Z,100502.16
2022-11-02T02:41:21.844Z,100512.31
2022-11-02T02:46:34.521Z,100509.84
2022-11-02T02:51:40.791Z,100503.78
2022-11-02T02:56:49.674Z,100514.78
2022-11-02T03:01:55.602Z,100502.38
2022-11-02T03:07:02.530Z,100497.22
2022-11-02T03:12:20.854Z,100507.25
2022-11-02T03:17:33.666Z,100512.84
2022-11-02T03:22:50.465Z,100507.56
2022-11-02T03:27:58.071Z,100503.22
2022-11-02T03:33:08.449Z,100494.41
2022-11-02T03:38:18.267Z,100499.03
2022-11-02T03:43:22.861Z,100497.41
2022-11-02T03:48:35.948Z,100485.22
2022-11-02T03:53:45.609Z,100481.66
2022-11-02T03:58:48.778Z,100485.44
2022-11-02T04:03:53.049Z,100479.22
2022-11-02T04:08:55.763Z,100487.44
2022-11-02T04:14:17.185Z,100493.03
2022-11-02T04:19:31.083Z,100493.13
2022-11-02T04:24:57.812Z,100494.13
2022-11-02T04:30:01.178Z,100488.06
2022-11-02T04:35:09.687Z,100489.88
2022-11-02T04:40:13.436Z,100487.41
2022-11-02T04:45:16.831Z,100486.75
2022-11-02T04:50:20.921Z,100489.44
2022-11-02T04:55:23.922Z,100494.09
2022-11-02T05:00:29.057Z,100485.22
2022-11-02T05:05:33.318Z,100477.25
2022-11-02T05:10:36.770Z,100472.06
2022-11-02T05:15:41.203Z,100464.94
2022-11-02T05:20:50.998Z,100461.50
2022-11-02T05:25:54.958Z,100454.41
2022-11-02T05:31:01.434Z,100456.22
2022-11-02T05:36:07.700Z,100463.47
2022-11-02T05:41:12.882Z,100464.41
2022-11-02T05:46:16.841Z,100462.69
2022-11-02T05:51:20.772Z,100477.13
2022-11-02T05:56:25.138Z,100478.94
2022-11-02T06:01:28.086Z,100468.28
2022-11-02T06:06:32.477Z,100471.91
2022-11-02T06:11:35.184Z,100467.50
2022-11-02T06:16:37.742Z,100479.38
2022-11-02T06:21:44.459Z,100488.41
2022-11-02T06:26:50.053Z,100491.19
2022-11-02T06:31:53.949Z,100493.88
2022-11-02T06:36:58.028Z,100508.34
2022-11-02T06:42:00.578Z,100522.78
2022-11-02T06:47:03.206Z,100532.69
2022-11-02T06:52:07.215Z,100534.50
2022-11-02T06:57:09.838Z,100536.34
2022-11-02T07:02:12.508Z,100543.56
2022-11-02T07:07:16.557Z,100557.91
2022-11-02T07:12:22.889Z,100563.28
2022-11-02T07:17:31.061Z,100564.25
2022-11-02T07:22:36.074Z,100572.34
2022-11-02T07:27:41.902Z,100573.19
2022-11-02T07:32:46.230Z,100584.91
2022-11-02T07:37:57.949Z,100590.28
2022-11-02T07:43:00.699Z,100590.28
2022-11-02T07:48:21.201Z,100589.44
2022-11-02T07:53:25.296Z,100591.19
2022-11-02T07:58:27.940Z,100596.66
2022-11-02T08:03:30.896Z,100597.63
2022-11-02T08:08:40.490Z,100609.25
2022-11-02T08:13:43.160Z,100607.53
2022-11-02T08:18:45.798Z,100611.09
2022-11-02T08:23:51.779Z,100613.78
2022-11-02T08:28:57.421Z,100612.06
2022-11-02T08:34:02.516Z,100607.53
2022-11-02T08:39:06.731Z,100606.69
2022-11-02T08:44:09.382Z,100602.16
2022-11-02T08:49:11.975Z,100613.69
2022-11-02T08:54:16.629Z,100598.38
2022-11-02T08:59:19.400Z,100606.38
2022-11-02T09:04:22.206Z,100609.06
2022-11-02T09:09:26.180Z,100608.09
2022-11-02T09:14:28.976Z,100605.41
2022-11-02T09:19:31.692Z,100608.00
2022-11-02T09:24:35.646Z,100609.81
2022-11-02T09:29:38.251Z,100607.13
2022-11-02T09:34:40.951Z,100614.25
2022-11-02T09:39:45.029Z,100603.41
2022-11-02T09:44:52.095Z,100615.09
2022-11-02T09:49:58.042Z,100625.81
2022-11-02T09:55:05.543Z,100624.72
2022-11-02T10:00:13.948Z,100620.31
2022-11-02T10:05:31.300Z,100626.16
2022-11-02T10:10:39.405Z,100605.28
2022-11-02T10:15:46.224Z,100610.44
2022-11-02T10:20:54.141Z,100597.84
2022-11-02T10:25:59.367Z,100605.63
2022-11-02T10:31:02.969Z,100600.81
2022-11-02T10:36:21.869Z,100598.78
2022-11-02T10:41:38.870Z,100610.19
2022-11-02T10:46:58.222Z,100617.34
2022-11-02T10:52:00.996Z,100630.50
2022-11-02T10:57:12.921Z,100642.81
2022-11-02T11:02:16.876Z,100645.25
2022-11-02T11:07:27.279Z,100666.75
2022-11-02T11:12:34.098Z,100685.53
2022-11-02T11:23:10.950Z,100655.84
2022-11-02T11:28:25.311Z,100655.81
2022-11-02T11:33:28.064Z,100661.56
2022-11-02T11:38:30.781Z,100657.91
2022-11-02T11:43:38.411Z,100663.19
2022-11-02T11:48:46.165Z,100660.56
2022-11-02T11:54:07.923Z,100665.09
2022-11-02T11:59:22.022Z,100672.97
2022-11-02T12:04:30.492Z,100667.69
2022-11-02T12:09:37.765Z,100669.41
2022-11-02T12:14:55.925Z,100661.16
2022-11-02T12:20:08.500Z,100658.25
2022-11-02T12:25:24.772Z,100651.66
2022-11-02T12:30:41.759Z,100657.47
2022-11-02T12:35:59.814Z,100652.19
2022-11-02T12:41:05.562Z,100652.06
2022-11-02T12:46:33.948Z,100649.06
2022-11-02T12:51:45.720Z,100646.47
2022-11-02T12:56:51.621Z,100647.78
2022-11-02T13:01:59.489Z,100655.22
2022-11-02T13:07:06.919Z,100647.03
2022-11-02T13:12:14.653Z,100647.59
2022-11-02T13:17:23.499Z,100639.84
2022-11-02T13:22:32.027Z,100639.19
2022-11-02T13:27:40.480Z,100641.34
2022-11-02T13:32:49.831Z,100640.69
2022-11-02T13:37:56.337Z,100641.13
2022-11-02T13:43:17.222Z,100642.22
2022-11-02T13:48:41.219Z,100643.50
2022-11-02T13:53:53.444Z,100640.22
2022-11-02T13:59:00.635Z,100632.25
2022-11-02T14:04:08.104Z,100629.56
2022-11-02T14:09:21.555Z,100633.53
2022-11-02T14:14:26.296Z,100640.44
2022-11-02T14:19:33.501Z,100651.44
2022-11-02T14:24:55.981Z,100666.00
2022-11-02T14:29:59.245Z,100667.09
2022-11-02T14:35:36.500Z,100666.25
2022-11-02T14:40:52.653Z,100677.13
2022-11-02T14:46:09.406Z,100667.28
2022-11-02T14:51:20.446Z,100672.81
2022-11-02T14:56:24.915Z,100665.56
2022-11-02T15:01:27.659Z,100689.00
2022-11-02T15:06:32.329Z,100689.00
2022-11-02T15:11:50.316Z,100699.78
2022-11-02T15:16:54.167Z,100700.00
2022-11-02T15:22:35.436Z,100707.25
2022-11-02T15:27:41.146Z,100709.16
2022-11-02T15:32:48.930Z,100710.03
2022-11-02T15:38:16.362Z,100721.34
2022-11-02T15:43:44.665Z,100728.72
2022-11-02T15:48:55.216Z,100730.28
2022-11-02T15:54:14.730Z,100738.91
2022-11-02T16:04:36.237Z,100726.00
2022-11-02T16:09:40.724Z,100732.72
2022-11-02T16:14:43.958Z,100733.78
2022-11-02T16:19:46.977Z,100734.97
2022-11-02T16:24:53.254Z,100736.22
2022-11-02T16:29:55.956Z,100743.03
2022-11-02T16:35:01.037Z,100737.53
2022-11-02T16:40:07.474Z,100744.25
2022-11-02T16:45:32.202Z,100742.53
2022-11-02T16:50:34.837Z,100747.34
2022-11-02T16:55:41.859Z,100748.78
2022-11-02T17:00:56.310Z,100753.00
2022-11-02T17:06:02.075Z,100756.16
2022-11-02T17:11:08.789Z,100761.25
2022-11-02T17:16:13.387Z,100769.13
2022-11-02T17:21:28.882Z,100773.34
2022-11-02T17:26:35.886Z,100763.97
2022-11-02T17:31:41.295Z,100766.34
2022-11-02T17:36:44.774Z,100769.59
2022-11-02T17:42:11.499Z,100769.38
2022-11-02T17:47:15.720Z,100775.44
2022-11-02T17:52:18.325Z,100778.00
2022-11-02T17:57:22.317Z,100782.25
2022-11-02T18:02:25.045Z,100776.59
2022-11-02T18:07:27.819Z,100779.00
2022-11-02T18:12:31.900Z,100768.06
2022-11-02T18:17:35.205Z,100772.28
2022-11-02T18:22:38.781Z,100764.97
2022-11-02T18:27:43.113Z,100763.00
2022-11-02T18:32:47.446Z,100761.00
2022-11-02T18:37:50.639Z,100762.81
2022-11-02T18:42:54.748Z,100762.47
2022-11-02T18:47:57.723Z,100765.72
2022-11-02T18:53:00.386Z,100766.50
2022-11-02T18:58:04.731Z,100763.56
2022-11-02T19:03:07.753Z,100741.94
2022-11-02T19:08:28.483Z,100751.69
2022-11-02T19:13:32.513Z,100762.25
2022-11-02T19:18:35.323Z,100751.44
2022-11-02T19:23:37.974Z,100742.47
2022-11-02T19:28:42.314Z,100745.72
2022-11-02T19:33:45.335Z,100754.47
2022-11-02T19:38:48.096Z,100754.34
2022-11-02T19:43:52.976Z,100748.81
2022-11-02T19:48:56.990Z,100749.56
2022-11-02T19:54:01.177Z,100755.75
2022-11-02T19:59:06.548Z,100767.44
2022-11-02T20:04:10.392Z,100775.31
2022-11-02T20:09:16.243Z,100770.00
2022-11-02T20:14:20.246Z,100777.06
2022-11-02T20:19:23.193Z,100778.66
2022-11-02T20:24:25.909Z,100773.25
2022-11-02T20:29:30.245Z,100783.75
2022-11-02T20:34:32.849Z,100787.50
2022-11-02T20:39:35.548Z,100779.41
2022-11-02T20:44:39.657Z,100783.00
2022-11-02T20:49:50.612Z,100788.41
2022-11-02T20:54:53.950Z,100799.22
2022-11-02T20:59:57.926Z,100797.91
2022-11-02T21:05:00.541Z,100808.53
2022-11-02T21:10:03.405Z,100822.16
2022-11-02T21:15:08.356Z,100813.06
2022-11-02T21:20:33.189Z,100807.97
2022-11-02T21:25:37.244Z,100802.78
2022-11-02T21:30:41.230Z,100795.75
2022-11-02T21:35:43.884Z,100791.44
2022-11-02T21:40:46.504Z,100790.56
2022-11-02T21:45:53.971Z,100781.38
2022-11-02T21:51:00.918Z,100786.78
2022-11-02T21:56:05.765Z,100780.50
2022-11-02T22:01:32.256Z,100781.59
2022-11-02T22:06:37.410Z,100775.50
2022-11-02T22:11:40.542Z,100776.28
2022-11-02T22:16:44.799Z,100766.41
2022-11-02T22:21:48.779Z,100763.81
2022-11-02T22:26:52.055Z,100762.97
2022-11-02T22:31:56.143Z,100767.84
2022-11-02T22:37:18.728Z,100763.41
2022-11-02T22:42:21.795Z,100763.53
2022-11-02T22:47:25.888Z,100748.25
2022-11-02T22:52:28.552Z,100732.03
2022-11-02T22:57:31.218Z,100726.00
2022-11-02T23:02:35.110Z,100723.63
2022-11-02T23:07:37.695Z,100731.94
2022-11-02T23:12:40.321Z,100720.50
2022-11-02T23:17:44.390Z,100728.09
2022-11-02T23:23:04.313Z,100731.00
2022-11-02T23:33:36.106Z,100724.66
2022-11-02T23:38:56.650Z,100715.06
2022-11-02T23:44:12.521Z,100714.47
2022-11-02T23:49:17.928Z,100711.31
2022-11-02T23:54:38.048Z,100702.78
2022-11-02T23:59:40.843Z,100704.09
